Time;durP1;ratioP1;P1;durP2;ratioP2;P2;SDS_P1;SDS_P2;PMS_P1;PMS_P2;Temp;Humidity;BMP_temperature;BMP_pressure;BME280_temperature;BME280_humidity;BME280_pressure;Samples;Min_cycle;Max_cycle;Signal;HPM_P1;HPM_P2
2021/12/01 00:00:43;;;;;;;;;;;;;;;7.74;64.86;98864.06;4379165;32;19993;-83
2021/12/01 00:03:11;;;;;;;;;;;;;;;8.02;63.91;98866.97;4384418;32;19997;-83
2021/12/01 00:05:38;;;;;;;;;;;;;;;7.99;63.82;98872.06;4379729;32;20044;-83
2021/12/01 00:08:05;;;;;;;;;;;;;;;8.04;63.58;98865.25;4376913;32;19978;-84
2021/12/01 00:10:34;;;;;;;;;;;;;;;7.84;64.19;98865.87;4379372;32;19978;-83
2021/12/01 00:13:05;;;;;;;;;;;;;;;7.87;63.94;98863.34;4378248;32;19990;-82
2021/12/01 00:15:32;;;;;;;;;;;;;;;7.57;64.86;98868.16;4383213;32;19988;-82
2021/12/01 00:17:59;;;;;;;;;;;;;;;7.00;67.09;98869.97;4376455;32;20365;-82
2021/12/01 00:20:25;;;;;;;;;;;;;;;7.19;66.31;98864.22;4384690;32;20330;-82
2021/12/01 00:22:52;;;;;;;;;;;;;;;6.75;67.69;98879.87;4383000;32;19990;-82
2021/12/01 00:25:22;;;;;;;;;;;;;;;6.48;68.70;98880.31;4384175;32;20113;-82
2021/12/01 00:27:50;;;;;;;;;;;;;;;6.81;67.70;98881.69;4383668;32;19997;-83
2021/12/01 00:30:17;;;;;;;;;;;;;;;7.31;65.75;98876.41;4384520;32;20467;-82
2021/12/01 00:32:44;;;;;;;;;;;;;;;7.29;65.42;98888.37;4384465;32;20655;-82
2021/12/01 00:35:11;;;;;;;;;;;;;;;6.73;67.30;98893.53;4383265;32;19985;-81
2021/12/01 00:37:39;;;;;;;;;;;;;;;6.89;67.02;98886.94;4376575;32;20384;-81
2021/12/01 00:40:07;;;;;;;;;;;;;;;6.98;66.97;98887.06;4383647;32;20032;-81
2021/12/01 00:42:33;;;;;;;;;;;;;;;7.48;64.97;98898.94;4383720;32;20005;-81
2021/12/01 00:45:07;;;;;;;;;;;;;;;7.99;63.01;98903.00;4368512;32;20103;-82
2021/12/01 00:50:33;;;;;;;;;;;;;;;7.52;64.18;98895.56;4365986;32;20041;-81
2021/12/01 00:53:02;;;;;;;;;;;;;;;7.97;61.82;98891.78;4368039;32;19986;-82
2021/12/01 00:55:29;;;;;;;;;;;;;;;8.08;61.79;98887.63;4361112;32;20052;-80
2021/12/01 00:57:57;;;;;;;;;;;;;;;8.02;61.46;98892.72;4361032;32;19991;-80
2021/12/01 01:00:25;;;;;;;;;;;;;;;8.13;61.45;98885.97;4375257;32;20547;-81
2021/12/01 01:02:53;;;;;;;;;;;;;;;8.27;60.89;98884.41;4374007;32;19990;-81
2021/12/01 01:05:20;;;;;;;;;;;;;;;7.87;61.67;98894.28;4379901;32;19978;-82
2021/12/01 01:07:47;;;;;;;;;;;;;;;7.85;61.01;98890.81;4367773;32;20029;-82
2021/12/01 01:10:25;;;;;;;;;;;;;;;8.07;61.38;98884.22;4383810;32;20007;-82
2021/12/01 01:18:24;;;;;;;;;;;;;;;8.05;61.28;98897.91;4367482;32;20126;-81
2021/12/01 01:20:51;;;;;;;;;;;;;;;8.04;60.59;98897.06;4356112;32;19989;-82
2021/12/01 01:23:18;;;;;;;;;;;;;;;8.11;60.70;98893.69;4377088;32;19995;-82
2021/12/01 01:25:45;;;;;;;;;;;;;;;7.99;60.50;98892.69;4370085;32;19993;-82
2021/12/01 01:28:12;;;;;;;;;;;;;;;7.43;62.89;98894.59;4380410;32;20017;-82
2021/12/01 01:30:39;;;;;;;;;;;;;;;7.52;62.90;98895.56;4369876;32;19981;-83
2021/12/01 01:33:06;;;;;;;;;;;;;;;7.44;62.58;98892.88;4380956;32;19994;-82
2021/12/01 01:35:33;;;;;;;;;;;;;;;7.67;61.51;98906.06;4384397;32;19982;-81
2021/12/01 01:38:00;;;;;;;;;;;;;;;7.91;61.12;98901.22;4382484;32;20045;-80
2021/12/01 01:40:26;;;;;;;;;;;;;;;8.01;60.47;98898.72;4367445;32;20449;-81
2021/12/01 01:42:53;;;;;;;;;;;;;;;7.66;62.15;98901.75;4385892;32;20032;-81
2021/12/01 01:45:20;;;;;;;;;;;;;;;7.79;61.34;98901.06;4377462;32;20026;-82
2021/12/01 01:47:59;;;;;;;;;;;;;;;7.85;61.00;98910.59;4375033;32;19999;-82
2021/12/01 01:50:36;;;;;;;;;;;;;;;7.97;60.63;98899.53;4386152;32;19989;-81
2021/12/01 01:53:11;;;;;;;;;;;;;;;7.93;60.96;98904.66;4381424;32;20359;-81
2021/12/01 01:55:39;;;;;;;;;;;;;;;7.95;60.84;98911.56;4377774;32;20363;-82
2021/12/01 01:58:07;;;;;;;;;;;;;;;8.05;59.91;98913.38;4382059;32;19983;-80
2021/12/01 02:00:42;;;;;;;;;;;;;;;8.54;58.33;98917.34;4383975;32;19997;-79
2021/12/01 02:03:11;;;;;;;;;;;;;;;8.57;58.40;98919.09;4378200;32;19989;-80
2021/12/01 02:05:38;;;;;;;;;;;;;;;8.34;58.82;98922.28;4384188;32;20008;-81
2021/12/01 02:08:05;;;;;;;;;;;;;;;8.38;58.89;98924.06;4382189;32;19986;-79
2021/12/01 02:10:32;;;;;;;;;;;;;;;8.20;59.86;98929.03;4385184;32;19990;-81
2021/12/01 02:12:58;;;;;;;;;;;;;;;8.46;58.61;98936.19;4385589;32;19974;-79
2021/12/01 02:15:25;;;;;;;;;;;;;;;8.37;59.36;98913.72;4384452;32;19978;-80
2021/12/01 02:17:52;;;;;;;;;;;;;;;8.45;58.91;98924.13;4380836;32;19990;-81
2021/12/01 02:20:19;;;;;;;;;;;;;;;8.77;57.80;98927.84;4373620;32;19990;-79
2021/12/01 02:22:46;;;;;;;;;;;;;;;8.43;58.80;98942.19;4382688;32;20046;-80
2021/12/01 02:25:13;;;;;;;;;;;;;;;8.45;58.86;98937.03;4379325;32;19994;-80
2021/12/01 02:27:40;;;;;;;;;;;;;;;7.98;60.43;98937.34;4385157;32;20284;-80
2021/12/01 02:30:07;;;;;;;;;;;;;;;8.38;58.96;98929.22;4371859;32;20780;-80
2021/12/01 02:32:34;;;;;;;;;;;;;;;8.62;58.60;98927.75;4385078;32;20042;-80
2021/12/01 02:35:01;;;;;;;;;;;;;;;8.51;58.48;98934.50;4384923;32;20079;-79
2021/12/01 02:37:28;;;;;;;;;;;;;;;8.75;57.74;98934.75;4385209;32;20624;-80
2021/12/01 02:39:55;;;;;;;;;;;;;;;8.54;58.19;98935.38;4370125;32;20327;-79
2021/12/01 02:42:22;;;;;;;;;;;;;;;8.76;57.73;98928.72;4383073;32;19994;-82
2021/12/01 02:44:48;;;;;;;;;;;;;;;8.94;57.43;98929.75;4380437;32;19989;-80
2021/12/01 02:47:15;;;;;;;;;;;;;;;8.85;57.38;98933.97;4371093;32;20021;-79
2021/12/01 02:49:42;;;;;;;;;;;;;;;8.69;57.99;98945.00;4386023;32;20105;-80
2021/12/01 02:52:09;;;;;;;;;;;;;;;8.33;59.40;98946.34;4384360;32;20057;-80
2021/12/01 02:54:36;;;;;;;;;;;;;;;8.73;57.38;98951.91;4372583;32;20004;-80
2021/12/01 02:57:03;;;;;;;;;;;;;;;8.89;57.23;98939.16;4382117;32;19989;-79
2021/12/01 02:59:30;;;;;;;;;;;;;;;9.18;55.98;98937.62;4380117;32;20024;-78
2021/12/01 03:01:57;;;;;;;;;;;;;;;8.96;56.80;98933.16;4384798;32;20023;-81
2021/12/01 03:04:24;;;;;;;;;;;;;;;9.13;56.54;98936.75;4384073;32;19977;-80
2021/12/01 03:06:51;;;;;;;;;;;;;;;9.37;55.40;98935.19;4385207;32;19992;-80
2021/12/01 03:09:18;;;;;;;;;;;;;;;8.88;56.86;98922.81;4383730;32;20015;-79
2021/12/01 03:11:45;;;;;;;;;;;;;;;8.83;56.80;98927.06;4385265;32;20024;-78
2021/12/01 03:14:14;;;;;;;;;;;;;;;8.58;57.15;98931.12;4379956;32;20040;-78
2021/12/01 03:16:41;;;;;;;;;;;;;;;8.78;56.87;98924.44;4373939;32;19982;-77
2021/12/01 03:19:08;;;;;;;;;;;;;;;8.68;56.94;98926.91;4380697;32;19982;-78
2021/12/01 03:21:35;;;;;;;;;;;;;;;8.99;56.06;98936.63;4383634;32;19986;-78
2021/12/01 03:24:02;;;;;;;;;;;;;;;9.01;55.81;98927.19;4381528;32;20372;-79
2021/12/01 03:26:29;;;;;;;;;;;;;;;9.00;55.92;98940.13;4381542;32;19979;-79
2021/12/01 03:28:56;;;;;;;;;;;;;;;9.27;54.69;98940.28;4381110;32;19981;-79
2021/12/01 03:31:23;;;;;;;;;;;;;;;8.71;56.24;98938.16;4385422;32;19986;-78
2021/12/01 03:33:50;;;;;;;;;;;;;;;8.82;56.25;98946.84;4369814;32;20383;-80
2021/12/01 03:36:17;;;;;;;;;;;;;;;8.89;55.96;98942.59;4371283;32;19997;-79
2021/12/01 03:38:45;;;;;;;;;;;;;;;8.99;55.31;98943.53;4378930;32;20001;-79
2021/12/01 03:41:11;;;;;;;;;;;;;;;9.07;55.34;98942.75;4376617;32;19978;-79
2021/12/01 03:43:38;;;;;;;;;;;;;;;8.97;55.59;98946.09;4380297;32;19993;-80
2021/12/01 03:46:05;;;;;;;;;;;;;;;8.88;55.92;98945.16;4380292;32;20699;-78
2021/12/01 03:48:32;;;;;;;;;;;;;;;9.03;55.46;98961.66;4377587;32;20328;-80
2021/12/01 03:50:59;;;;;;;;;;;;;;;9.21;54.09;98954.88;4380980;32;19986;-80
2021/12/01 03:53:26;;;;;;;;;;;;;;;8.94;55.36;98965.88;4381217;32;19978;-80
2021/12/01 03:55:53;;;;;;;;;;;;;;;9.04;55.27;98957.34;4385007;32;19982;-81
2021/12/01 03:58:20;;;;;;;;;;;;;;;8.53;56.73;98963.75;4380642;32;19997;-79
2021/12/01 04:00:47;;;;;;;;;;;;;;;8.98;55.33;98957.28;4384303;32;19990;-80
2021/12/01 04:03:14;;;;;;;;;;;;;;;9.03;54.97;98951.31;4384237;32;19992;-80
2021/12/01 04:05:41;;;;;;;;;;;;;;;8.73;55.75;98944.16;4375573;32;20004;-80
2021/12/01 04:08:08;;;;;;;;;;;;;;;8.78;55.56;98950.25;4384401;32;19986;-80
2021/12/01 04:10:35;;;;;;;;;;;;;;;9.05;54.51;98948.72;4384806;32;19981;-80
2021/12/01 04:13:02;;;;;;;;;;;;;;;9.02;54.78;98944.41;4383748;32;19973;-81
2021/12/01 04:15:29;;;;;;;;;;;;;;;8.70;55.94;98967.34;4382919;32;19978;-80
2021/12/01 04:17:56;;;;;;;;;;;;;;;8.75;55.75;98965.69;4384947;32;20312;-79
2021/12/01 04:20:23;;;;;;;;;;;;;;;8.93;55.16;98964.13;4384912;32;20004;-79
2021/12/01 04:22:50;;;;;;;;;;;;;;;9.01;54.87;98968.50;4383256;32;19992;-79
2021/12/01 04:25:17;;;;;;;;;;;;;;;8.48;56.88;98971.44;4380872;32;19997;-81
2021/12/01 04:27:44;;;;;;;;;;;;;;;8.65;56.42;98971.63;4383419;32;20863;-80
2021/12/01 04:30:12;;;;;;;;;;;;;;;8.68;56.35;98973.34;4384584;32;19985;-79
2021/12/01 04:32:39;;;;;;;;;;;;;;;9.15;54.97;98976.34;4382625;32;20346;-80
2021/12/01 04:35:06;;;;;;;;;;;;;;;9.02;55.39;98979.69;4380788;32;19989;-80
2021/12/01 04:37:35;;;;;;;;;;;;;;;9.24;54.34;98976.41;4384764;32;20780;-80
2021/12/01 04:40:04;;;;;;;;;;;;;;;9.21;54.75;98975.53;4379239;32;20405;-80
2021/12/01 04:42:30;;;;;;;;;;;;;;;8.98;55.67;98983.97;4376587;32;19989;-79
2021/12/01 04:44:57;;;;;;;;;;;;;;;9.21;54.89;98986.72;4379549;32;20332;-80
2021/12/01 04:47:29;;;;;;;;;;;;;;;9.18;55.14;98991.88;4384022;32;20711;-81
2021/12/01 04:49:56;;;;;;;;;;;;;;;9.23;54.91;99000.53;4383961;32;20039;-81
2021/12/01 04:52:23;;;;;;;;;;;;;;;9.41;54.42;99015.31;4380242;32;20037;-80
2021/12/01 04:54:50;;;;;;;;;;;;;;;9.20;54.96;99021.16;4382168;32;20002;-79
2021/12/01 04:57:17;;;;;;;;;;;;;;;9.54;54.00;99018.84;4380433;32;19982;-79
2021/12/01 04:59:44;;;;;;;;;;;;;;;9.17;54.99;99031.47;4383566;32;19997;-79
2021/12/01 05:02:12;;;;;;;;;;;;;;;9.06;55.60;99048.56;4379671;32;19969;-79
2021/12/01 05:04:41;;;;;;;;;;;;;;;8.47;57.59;99041.06;4380286;32;20026;-79
2021/12/01 05:07:08;;;;;;;;;;;;;;;8.49;57.42;99044.53;4384109;32;20064;-80
2021/12/01 05:09:35;;;;;;;;;;;;;;;9.10;55.59;99050.34;4382121;32;19999;-80
2021/12/01 05:12:02;;;;;;;;;;;;;;;7.84;59.37;99053.97;4382524;32;20041;-80
2021/12/01 05:14:29;;;;;;;;;;;;;;;8.19;58.51;99053.59;4385939;32;20011;-82
2021/12/01 05:16:56;;;;;;;;;;;;;;;7.70;60.37;99065.78;4384924;32;20061;-79
2021/12/01 05:19:23;;;;;;;;;;;;;;;8.60;57.35;99081.63;4383745;32;20003;-79
2021/12/01 05:21:50;;;;;;;;;;;;;;;8.51;57.88;99084.09;4376905;32;20009;-79
2021/12/01 05:24:17;;;;;;;;;;;;;;;8.06;59.41;99092.94;4381302;32;19979;-80
2021/12/01 05:26:44;;;;;;;;;;;;;;;7.97;59.82;99097.94;4385296;32;20426;-77
2021/12/01 05:29:11;;;;;;;;;;;;;;;7.86;60.66;99103.81;4383581;32;20449;-77
2021/12/01 05:31:38;;;;;;;;;;;;;;;8.33;59.01;99111.38;4375815;32;19985;-78
2021/12/01 05:34:04;;;;;;;;;;;;;;;8.20;59.38;99103.41;4385400;32;20028;-84
2021/12/01 05:36:31;;;;;;;;;;;;;;;8.33;58.81;99111.38;4381224;32;19991;-83
2021/12/01 05:38:58;;;;;;;;;;;;;;;8.20;59.45;99119.78;4385453;32;20028;-82
2021/12/01 05:41:25;;;;;;;;;;;;;;;8.23;59.60;99124.97;4383899;32;19975;-81
2021/12/01 05:43:52;;;;;;;;;;;;;;;8.48;58.80;99125.31;4382217;32;19982;-82
2021/12/01 05:46:19;;;;;;;;;;;;;;;8.39;58.66;99131.22;4384491;32;20024;-81
2021/12/01 05:48:46;;;;;;;;;;;;;;;8.45;58.99;99135.59;4386033;32;19990;-82
2021/12/01 05:51:13;;;;;;;;;;;;;;;8.44;59.23;99144.19;4386259;32;19974;-81
2021/12/01 05:53:40;;;;;;;;;;;;;;;7.94;60.15;99142.56;4380756;32;19992;-86
2021/12/01 05:56:07;;;;;;;;;;;;;;;8.02;60.63;99140.13;4385166;32;20021;-82
2021/12/01 05:58:33;;;;;;;;;;;;;;;8.22;59.74;99146.44;4382835;32;20352;-84
2021/12/01 06:01:00;;;;;;;;;;;;;;;8.14;60.21;99150.62;4354425;32;20330;-84
2021/12/01 06:03:29;;;;;;;;;;;;;;;7.99;60.92;99150.41;4372519;32;20032;-84
2021/12/01 06:05:56;;;;;;;;;;;;;;;7.79;61.45;99156.09;4377555;32;19970;-83
2021/12/01 06:08:23;;;;;;;;;;;;;;;7.66;61.75;99149.03;4370953;32;19990;-84
2021/12/01 06:10:50;;;;;;;;;;;;;;;7.52;62.27;99153.06;4371581;32;20017;-83
2021/12/01 06:13:17;;;;;;;;;;;;;;;7.90;61.46;99151.09;4377600;32;20010;-82
2021/12/01 06:15:49;;;;;;;;;;;;;;;8.34;60.10;99154.34;4376519;32;20000;-83
2021/12/01 06:18:16;;;;;;;;;;;;;;;7.90;60.97;99162.28;4369639;32;20004;-84
2021/12/01 06:20:43;;;;;;;;;;;;;;;7.92;61.37;99165.75;4372060;32;20338;-84
2021/12/01 06:23:10;;;;;;;;;;;;;;;7.56;62.42;99171.19;4376178;32;20000;-86
2021/12/01 06:25:37;;;;;;;;;;;;;;;7.99;61.51;99171.00;4369826;32;19986;-87
2021/12/01 06:28:04;;;;;;;;;;;;;;;8.10;61.03;99184.91;4374025;32;19974;-87
2021/12/01 06:30:32;;;;;;;;;;;;;;;8.26;60.40;99181.72;4386149;32;20035;-81
2021/12/01 06:32:59;;;;;;;;;;;;;;;8.08;61.30;99186.63;4382345;32;19981;-84
2021/12/01 06:35:25;;;;;;;;;;;;;;;8.25;60.43;99200.63;4375096;32;20036;-82
2021/12/01 06:37:54;;;;;;;;;;;;;;;8.62;59.48;99196.03;4385727;32;19982;-80
2021/12/01 06:40:22;;;;;;;;;;;;;;;8.77;59.13;99201.37;4385484;32;19989;-81
2021/12/01 06:42:49;;;;;;;;;;;;;;;8.71;59.07;99201.31;4385839;32;20546;-82
2021/12/01 06:45:16;;;;;;;;;;;;;;;8.78;58.68;99197.97;4378753;32;19992;-81
2021/12/01 06:47:43;;;;;;;;;;;;;;;8.91;58.35;99205.88;4376005;32;20311;-80
2021/12/01 06:50:11;;;;;;;;;;;;;;;8.80;58.85;99206.56;4372581;32;20035;-80
2021/12/01 06:52:38;;;;;;;;;;;;;;;9.08;57.92;99217.25;4369391;32;19981;-81
2021/12/01 06:55:06;;;;;;;;;;;;;;;9.29;57.35;99222.66;4366616;32;19997;-81
2021/12/01 06:57:32;;;;;;;;;;;;;;;9.21;57.70;99223.41;4382360;32;19974;-83
2021/12/01 07:00:00;;;;;;;;;;;;;;;9.29;57.21;99214.91;4384856;32;19986;-82
2021/12/01 07:02:27;;;;;;;;;;;;;;;9.16;57.83;99220.81;4380122;32;20324;-81
2021/12/01 07:04:54;;;;;;;;;;;;;;;9.10;58.00;99215.56;4372806;32;20005;-80
2021/12/01 07:07:21;;;;;;;;;;;;;;;8.46;59.79;99214.72;4370965;32;20027;-82
2021/12/01 07:09:50;;;;;;;;;;;;;;;9.32;57.58;99212.38;4372294;32;19977;-82
2021/12/01 07:12:17;;;;;;;;;;;;;;;9.72;56.55;99210.19;4348913;32;915240;-83
2021/12/01 07:14:44;;;;;;;;;;;;;;;9.96;56.08;99203.50;4369564;32;19983;-82
2021/12/01 07:17:11;;;;;;;;;;;;;;;9.88;56.04;99189.62;4370585;32;20000;-82
2021/12/01 07:19:38;;;;;;;;;;;;;;;10.15;55.64;99182.09;4370772;32;20351;-85
2021/12/01 07:22:05;;;;;;;;;;;;;;;10.27;54.96;99183.06;4369004;32;20361;-85
2021/12/01 07:24:33;;;;;;;;;;;;;;;10.00;56.01;99182.00;4372686;32;20337;-85
2021/12/01 07:27:00;;;;;;;;;;;;;;;9.51;57.09;99191.91;4378442;32;19990;-86
2021/12/01 07:29:27;;;;;;;;;;;;;;;8.79;59.73;99199.69;4383873;32;20057;-86
2021/12/01 07:31:54;;;;;;;;;;;;;;;9.43;57.50;99194.41;4375870;32;20346;-82
2021/12/01 07:34:21;;;;;;;;;;;;;;;9.31;57.91;99204.59;4375463;32;19997;-84
2021/12/01 07:36:48;;;;;;;;;;;;;;;9.42;57.75;99199.56;4371872;32;20033;-82
2021/12/01 07:39:20;;;;;;;;;;;;;;;9.93;56.29;99196.59;4370537;32;20028;-82
2021/12/01 07:41:47;;;;;;;;;;;;;;;10.13;55.70;99204.50;4372098;32;20030;-83
2021/12/01 07:44:14;;;;;;;;;;;;;;;10.14;55.88;99206.22;4375505;32;20701;-83
2021/12/01 07:46:42;;;;;;;;;;;;;;;9.98;56.39;99204.38;4376470;32;20040;-83
2021/12/01 07:49:11;;;;;;;;;;;;;;;10.25;55.70;99199.41;4369027;32;19991;-81
2021/12/01 07:51:38;;;;;;;;;;;;;;;10.43;55.24;99192.66;4370804;32;20685;-83
2021/12/01 07:54:05;;;;;;;;;;;;;;;10.53;55.15;99184.09;4378524;32;20086;-83
2021/12/01 07:56:32;;;;;;;;;;;;;;;10.58;55.13;99172.03;4370552;32;19991;-83
2021/12/01 07:58:59;;;;;;;;;;;;;;;10.55;55.54;99166.84;4372350;32;19979;-84
2021/12/01 08:01:26;;;;;;;;;;;;;;;10.62;55.40;99171.19;4376796;32;19995;-84
2021/12/01 08:03:54;;;;;;;;;;;;;;;10.66;55.69;99165.19;4367960;32;20758;-82
2021/12/01 08:06:21;;;;;;;;;;;;;;;10.80;55.69;99174.75;4341197;32;20353;-84
2021/12/01 08:08:48;;;;;;;;;;;;;;;10.92;56.12;99172.22;4333119;32;20094;-84
2021/12/01 08:11:16;;;;;;;;;;;;;;;10.83;56.12;99167.84;4325174;32;19976;-82
2021/12/01 08:13:42;;;;;;;;;;;;;;;10.93;55.82;99169.59;4326940;33;20417;-83
2021/12/01 08:16:15;;;;;;;;;;;;;;;10.87;56.03;99179.94;4332617;33;20196;-82
2021/12/01 08:18:41;;;;;;;;;;;;;;;10.90;56.25;99179.09;4325598;33;19997;-84
2021/12/01 08:21:09;;;;;;;;;;;;;;;10.93;56.63;99171.34;4326020;33;19972;-84
2021/12/01 08:23:38;;;;;;;;;;;;;;;11.03;56.49;99165.31;4325576;33;20326;-84
2021/12/01 08:26:04;;;;;;;;;;;;;;;11.00;56.70;99165.31;4325611;33;20879;-82
2021/12/01 08:28:34;;;;;;;;;;;;;;;10.91;57.08;99160.09;4331169;33;20030;-84
2021/12/01 08:31:01;;;;;;;;;;;;;;;11.07;56.82;99168.78;4327427;33;20310;-82
2021/12/01 08:33:27;;;;;;;;;;;;;;;11.09;56.52;99157.56;4325775;33;19984;-83
2021/12/01 08:35:54;;;;;;;;;;;;;;;11.13;56.15;99163.63;4327409;33;20034;-81
2021/12/01 08:38:21;;;;;;;;;;;;;;;10.86;57.21;99172.19;4334920;33;20023;-81
2021/12/01 08:40:48;;;;;;;;;;;;;;;11.07;56.17;99166.19;4331707;33;19980;-83
2021/12/01 08:43:15;;;;;;;;;;;;;;;10.77;57.67;99177.31;4331335;33;19975;-87
2021/12/01 08:45:42;;;;;;;;;;;;;;;10.78;58.09;99176.44;4335812;33;20447;-86
2021/12/01 08:48:09;;;;;;;;;;;;;;;10.81;58.35;99174.72;4335535;33;19976;-83
2021/12/01 08:50:36;;;;;;;;;;;;;;;11.00;57.97;99164.44;4327228;33;20000;-85
2021/12/01 08:53:03;;;;;;;;;;;;;;;11.13;57.90;99168.81;4326826;33;20002;-81
2021/12/01 08:55:30;;;;;;;;;;;;;;;11.18;58.63;99165.38;4335390;33;20002;-84
2021/12/01 08:58:07;;;;;;;;;;;;;;;11.16;58.96;99161.03;4326894;33;20076;-83
2021/12/01 09:00:40;;;;;;;;;;;;;;;11.22;58.71;99155.87;4337788;33;19983;-78
2021/12/01 09:03:08;;;;;;;;;;;;;;;11.22;59.08;99165.38;4327095;33;19994;-83
2021/12/01 09:05:35;;;;;;;;;;;;;;;11.37;58.82;99170.59;4332324;33;20059;-86
2021/12/01 09:08:02;;;;;;;;;;;;;;;11.33;58.99;99163.69;4330243;33;20633;-83
2021/12/01 09:10:29;;;;;;;;;;;;;;;11.41;58.86;99151.59;4327584;33;19980;-80
2021/12/01 09:12:57;;;;;;;;;;;;;;;11.27;59.21;99153.31;4334945;33;19988;-81
2021/12/01 09:15:24;;;;;;;;;;;;;;;11.20;59.14;99146.38;4328347;33;19992;-82
2021/12/01 09:17:51;;;;;;;;;;;;;;;11.15;59.49;99136.00;4334772;33;20039;-85
2021/12/01 09:20:18;;;;;;;;;;;;;;;11.26;59.49;99130.84;4327067;33;19994;-85
2021/12/01 09:22:45;;;;;;;;;;;;;;;11.43;59.17;99130.91;4328595;33;19991;-83
2021/12/01 09:25:12;;;;;;;;;;;;;;;11.33;59.18;99117.06;4333107;33;20004;-83
2021/12/01 09:27:38;;;;;;;;;;;;;;;11.45;59.21;99126.56;4334591;33;20014;-83
2021/12/01 09:30:05;;;;;;;;;;;;;;;10.97;60.89;99129.03;4341619;33;20010;-83
2021/12/01 09:32:35;;;;;;;;;;;;;;;10.53;61.23;99140.13;4335310;33;20031;-81
2021/12/01 09:35:01;;;;;;;;;;;;;;;10.59;60.80;99147.91;4335393;33;19992;-84
2021/12/01 09:37:28;;;;;;;;;;;;;;;10.50;61.80;99147.87;4341666;33;19994;-84
2021/12/01 09:39:55;;;;;;;;;;;;;;;10.72;61.61;99143.66;4341578;33;20007;-83
2021/12/01 09:42:22;;;;;;;;;;;;;;;10.36;62.42;99141.72;4341992;33;19985;-84
2021/12/01 09:44:49;;;;;;;;;;;;;;;10.06;63.12;99129.47;4336903;33;20385;-83
2021/12/01 09:47:19;;;;;;;;;;;;;;;10.42;62.33;99118.47;4337339;33;20002;-82
2021/12/01 09:49:46;;;;;;;;;;;;;;;10.11;62.49;99107.91;4339703;32;20346;-84
2021/12/01 09:52:13;;;;;;;;;;;;;;;9.78;63.00;99106.84;4327183;33;20002;-83
2021/12/01 09:54:40;;;;;;;;;;;;;;;9.51;62.88;99110.09;4326943;33;19976;-83
2021/12/01 09:57:07;;;;;;;;;;;;;;;9.71;62.21;99107.66;4327050;33;20031;-80
2021/12/01 09:59:34;;;;;;;;;;;;;;;9.90;61.63;99097.47;4326966;33;19985;-83
2021/12/01 10:02:01;;;;;;;;;;;;;;;9.89;61.87;99118.97;4326430;32;20015;-83
2021/12/01 10:04:29;;;;;;;;;;;;;;;9.81;61.03;99118.06;4335031;33;19980;-82
2021/12/01 10:07:12;;;;;;;;;;;;;;;10.63;59.12;99097.03;4325067;33;20002;-83
2021/12/01 10:09:43;;;;;;;;;;;;;;;10.68;58.97;99106.50;4335066;32;20079;-82
2021/12/01 10:12:10;;;;;;;;;;;;;;;9.88;60.00;99099.16;4343950;32;20006;-83
2021/12/01 10:14:37;;;;;;;;;;;;;;;9.42;62.28;99094.50;4335196;32;19980;-82
2021/12/01 10:17:04;;;;;;;;;;;;;;;9.90;59.86;99093.16;4319116;32;19991;-83
2021/12/01 10:19:31;;;;;;;;;;;;;;;10.79;57.83;99087.59;4348627;32;20004;-83
2021/12/01 10:21:59;;;;;;;;;;;;;;;10.89;56.83;99094.50;4352063;32;20047;-81
2021/12/01 10:24:27;;;;;;;;;;;;;;;11.04;55.45;99094.56;4363250;32;20002;-83
2021/12/01 10:26:55;;;;;;;;;;;;;;;11.02;55.66;99098.00;4370335;32;19985;-82
2021/12/01 10:29:28;;;;;;;;;;;;;;;11.27;55.33;99106.69;4370238;32;19983;-83
2021/12/01 10:31:56;;;;;;;;;;;;;;;11.60;54.37;99101.50;4368422;32;19999;-82
2021/12/01 10:34:26;;;;;;;;;;;;;;;11.62;52.90;99099.78;4361260;32;20042;-83
2021/12/01 10:37:11;;;;;;;;;;;;;;;10.56;53.40;99106.50;4367903;32;20021;-83
2021/12/01 10:39:38;;;;;;;;;;;;;;;10.48;54.10;99114.19;4372314;32;20545;-82
2021/12/01 10:42:09;;;;;;;;;;;;;;;9.89;55.39;99099.19;4353436;32;20042;-82
2021/12/01 10:44:37;;;;;;;;;;;;;;;10.38;53.87;99102.09;4355801;32;20050;-83
2021/12/01 10:47:09;;;;;;;;;;;;;;;10.47;53.53;99096.09;4361870;32;20018;-81
2021/12/01 10:49:40;;;;;;;;;;;;;;;10.35;53.91;99090.84;4360300;32;19993;-83
2021/12/01 10:52:12;;;;;;;;;;;;;;;9.82;55.08;99089.62;4355437;32;19987;-83
2021/12/01 10:54:39;;;;;;;;;;;;;;;10.47;54.29;99085.75;4353507;32;19979;-83
2021/12/01 10:57:19;;;;;;;;;;;;;;;10.11;55.07;99086.37;4363055;32;19978;-83
2021/12/01 10:59:47;;;;;;;;;;;;;;;10.23;54.80;99066.62;4354924;32;20412;-79
2021/12/01 11:02:16;;;;;;;;;;;;;;;10.56;54.38;99065.09;4361008;32;20022;-82
2021/12/01 11:04:46;;;;;;;;;;;;;;;10.44;53.63;99067.62;4356418;32;19979;-82
2021/12/01 11:07:30;;;;;;;;;;;;;;;10.41;53.59;99065.03;4358296;32;20026;-82
2021/12/01 11:10:17;;;;;;;;;;;;;;;10.48;54.33;99067.62;4356264;32;19983;-82
2021/12/01 11:12:58;;;;;;;;;;;;;;;10.56;53.91;99065.09;4356697;32;19978;-83
2021/12/01 11:15:29;;;;;;;;;;;;;;;10.51;53.59;99065.91;4359832;32;20380;-84
2021/12/01 11:18:19;;;;;;;;;;;;;;;10.54;54.03;99051.25;4353807;32;19975;-83
2021/12/01 11:21:07;;;;;;;;;;;;;;;9.72;55.19;99052.53;4353521;32;19975;-82
2021/12/01 11:23:48;;;;;;;;;;;;;;;9.60;56.47;99041.25;4353006;32;19987;-82
2021/12/01 11:26:19;;;;;;;;;;;;;;;10.15;54.77;99039.88;4354584;32;20046;-82
2021/12/01 11:28:48;;;;;;;;;;;;;;;10.43;53.47;99032.25;4353256;32;19986;-83
2021/12/01 11:31:18;;;;;;;;;;;;;;;10.52;54.10;99027.09;4353650;32;20066;-83
2021/12/01 11:33:46;;;;;;;;;;;;;;;10.99;51.72;99018.56;4363112;32;19995;-82
2021/12/01 11:36:15;;;;;;;;;;;;;;;10.73;52.00;99004.75;4354682;32;19988;-83
2021/12/01 11:38:42;;;;;;;;;;;;;;;10.82;51.78;98999.59;4356315;32;20022;-83
2021/12/01 11:41:09;;;;;;;;;;;;;;;11.20;50.48;98991.84;4362693;32;19975;-83
2021/12/01 11:43:37;;;;;;;;;;;;;;;11.34;50.84;98978.88;4354859;32;19989;-82
2021/12/01 11:46:04;;;;;;;;;;;;;;;11.26;51.44;98980.59;4362847;32;19983;-83
2021/12/01 11:48:33;;;;;;;;;;;;;;;11.29;51.38;98976.25;4356741;32;19971;-81
2021/12/01 11:51:29;;;;;;;;;;;;;;;11.10;49.96;98974.53;4354651;32;19997;-83
2021/12/01 11:53:57;;;;;;;;;;;;;;;11.53;49.93;98967.59;4350496;32;20050;-84
2021/12/01 11:56:29;;;;;;;;;;;;;;;11.07;50.55;98959.00;4358576;32;19983;-83
2021/12/01 11:58:58;;;;;;;;;;;;;;;11.50;49.33;98954.66;4354819;32;19985;-84
2021/12/01 12:01:25;;;;;;;;;;;;;;;11.95;48.42;98958.00;4353152;32;19979;-85
2021/12/01 12:03:52;;;;;;;;;;;;;;;11.66;49.85;98939.06;4357726;32;19977;-80
2021/12/01 12:06:23;;;;;;;;;;;;;;;11.54;49.64;98935.63;4361115;32;20781;-84
2021/12/01 12:09:00;;;;;;;;;;;;;;;11.84;48.49;98939.91;4359334;32;19991;-81
2021/12/01 12:11:36;;;;;;;;;;;;;;;11.85;49.36;98936.44;4361419;32;20285;-82
2021/12/01 12:14:05;;;;;;;;;;;;;;;11.83;49.20;98926.91;4353380;32;20078;-83
2021/12/01 12:16:33;;;;;;;;;;;;;;;12.22;48.48;98925.03;4354227;32;19979;-82
2021/12/01 12:19:00;;;;;;;;;;;;;;;11.90;49.53;98925.19;4352939;32;19967;-84
2021/12/01 12:21:47;;;;;;;;;;;;;;;11.97;49.48;98919.97;4357940;32;19999;-83
2021/12/01 12:24:17;;;;;;;;;;;;;;;11.85;48.72;98928.66;4367271;32;19991;-82
2021/12/01 12:26:45;;;;;;;;;;;;;;;12.34;48.85;98927.56;4358613;32;20022;-81
2021/12/01 12:29:16;;;;;;;;;;;;;;;12.37;47.88;98914.56;4349883;32;19975;-82
2021/12/01 12:31:44;;;;;;;;;;;;;;;12.20;48.28;98921.59;4351924;32;20018;-84
2021/12/01 12:34:15;;;;;;;;;;;;;;;12.61;47.51;98913.56;4352695;32;20983;-83
2021/12/01 12:36:55;;;;;;;;;;;;;;;12.30;47.22;98920.66;4351377;32;20062;-84
2021/12/01 12:39:24;;;;;;;;;;;;;;;12.59;47.26;98915.28;4341801;32;19993;-84
2021/12/01 12:41:54;;;;;;;;;;;;;;;11.96;49.29;98907.84;4359158;32;20303;-83
2021/12/01 12:44:31;;;;;;;;;;;;;;;12.12;49.69;98906.06;4353711;32;19992;-84
2021/12/01 12:47:12;;;;;;;;;;;;;;;11.85;49.06;98899.28;4361133;32;19978;-83
2021/12/01 12:49:40;;;;;;;;;;;;;;;11.97;48.46;98888.84;4365076;32;20780;-84
2021/12/01 12:52:26;;;;;;;;;;;;;;;11.79;48.91;98883.72;4358748;32;19995;-83
2021/12/01 12:54:56;;;;;;;;;;;;;;;12.31;48.40;98888.66;4353488;32;20039;-84
2021/12/01 12:57:24;;;;;;;;;;;;;;;12.36;48.08;98880.84;4353675;32;20029;-85
2021/12/01 13:00:10;;;;;;;;;;;;;;;12.26;47.07;98877.47;4340261;32;19998;-86
2021/12/01 13:02:37;;;;;;;;;;;;;;;11.67;49.64;98888.94;4362931;32;19997;-86
2021/12/01 13:05:05;;;;;;;;;;;;;;;11.77;49.06;98880.25;4354550;32;20000;-83
2021/12/01 13:07:37;;;;;;;;;;;;;;;11.91;48.71;98878.50;4353971;32;19983;-85